Terminal Aerodrome Forecast
Issued by NWS

Home | Current Version | Previous Version | Text Only | Print | Product List | Glossary On
Versions: 1 2 3 4 5 6 7 8 9 10 11 12 13 14 15 16 17 18 19 20 21 22 23 24 25 26 27 28 29
000
FTUS46 KOTX 261139
TAFSFF
TAF
KSFF 261139Z 2612/2712 22004KT 4SM -SN SCT010 OVC028
     FM261400 VRB03KT 1 1/2SM -SN BR OVC015
     FM262000 00000KT 4SM -SN SCT010 OVC020
     FM270100 04003KT 6SM -SHSN BKN015 OVC022
     FM270400 VRB03KT P6SM SCT015 BKN028=

USA.gov is the U.S. government's official web portal to all federal, state and local government web resources and services.